sensor_id;sensor_type;location;lat;lon;timestamp;temperature;humidity
21625;DHT22;10974;51.034;3.744;2022-12-18T04:18:16;-4.10;99.90
21625;DHT22;10974;51.034;3.744;2022-12-18T04:20:43;-4.20;99.90
21625;DHT22;10974;51.034;3.744;2022-12-18T04:23:08;-4.10;99.90
21625;DHT22;10974;51.034;3.744;2022-12-18T04:25:34;-4.30;99.90
21625;DHT22;10974;51.034;3.744;2022-12-18T04:28:00;-4.10;99.90
21625;DHT22;10974;51.034;3.744;2022-12-18T04:30:25;-4.10;99.90
21625;DHT22;10974;51.034;3.744;2022-12-18T04:32:51;-4.20;99.90
21625;DHT22;10974;51.034;3.744;2022-12-18T04:35:17;-4.20;99.90
21625;DHT22;10974;51.034;3.744;2022-12-18T04:37:43;-4.20;99.90
21625;DHT22;10974;51.034;3.744;2022-12-18T04:40:09;-4.20;99.90
21625;DHT22;10974;51.034;3.744;2022-12-18T04:42:35;-4.20;99.90
21625;DHT22;10974;51.034;3.744;2022-12-18T04:45:00;-4.20;99.90
21625;DHT22;10974;51.034;3.744;2022-12-18T04:47:26;-4.30;99.90
21625;DHT22;10974;51.034;3.744;2022-12-18T04:49:52;-4.20;99.90
21625;DHT22;10974;51.034;3.744;2022-12-18T04:52:17;-4.20;99.90
21625;DHT22;10974;51.034;3.744;2022-12-18T04:54:43;-4.20;99.90
21625;DHT22;10974;51.034;3.744;2022-12-18T04:57:09;-4.30;99.90
21625;DHT22;10974;51.034;3.744;2022-12-18T04:59:34;-4.20;99.90
21625;DHT22;10974;51.034;3.744;2022-12-18T05:02:00;-4.20;99.90
21625;DHT22;10974;51.034;3.744;2022-12-18T05:04:26;-4.30;99.90
21625;DHT22;10974;51.034;3.744;2022-12-18T05:06:51;-4.20;99.90
21625;DHT22;10974;51.034;3.744;2022-12-18T05:09:17;-4.10;99.90
21625;DHT22;10974;51.034;3.744;2022-12-18T05:11:43;-4.40;99.90
21625;DHT22;10974;51.034;3.744;2022-12-18T05:14:08;-4.30;99.90
21625;DHT22;10974;51.034;3.744;2022-12-18T05:16:34;-4.20;99.90
21625;DHT22;10974;51.034;3.744;2022-12-18T05:18:59;-4.20;99.90
21625;DHT22;10974;51.034;3.744;2022-12-18T05:21:25;-4.30;99.90
21625;DHT22;10974;51.034;3.744;2022-12-18T05:23:51;-4.30;99.90
21625;DHT22;10974;51.034;3.744;2022-12-18T05:26:18;-4.20;99.90
21625;DHT22;10974;51.034;3.744;2022-12-18T05:28:44;-4.20;99.90
21625;DHT22;10974;51.034;3.744;2022-12-18T05:31:10;-4.20;99.90
21625;DHT22;10974;51.034;3.744;2022-12-18T05:33:36;-4.30;99.90
21625;DHT22;10974;51.034;3.744;2022-12-18T05:36:05;-4.30;99.90
21625;DHT22;10974;51.034;3.744;2022-12-18T05:38:32;-4.20;99.90
21625;DHT22;10974;51.034;3.744;2022-12-18T05:40:59;-4.40;99.90
21625;DHT22;10974;51.034;3.744;2022-12-18T05:43:26;-4.20;99.90
21625;DHT22;10974;51.034;3.744;2022-12-18T05:45:52;-4.20;99.90
21625;DHT22;10974;51.034;3.744;2022-12-18T05:48:18;-4.20;99.90
21625;DHT22;10974;51.034;3.744;2022-12-18T05:50:45;-4.20;99.90
21625;DHT22;10974;51.034;3.744;2022-12-18T05:53:13;-4.20;99.90
21625;DHT22;10974;51.034;3.744;2022-12-18T05:55:40;-4.20;99.90
21625;DHT22;10974;51.034;3.744;2022-12-18T05:58:08;-4.20;99.90
21625;DHT22;10974;51.034;3.744;2022-12-18T06:00:36;-4.30;99.90
21625;DHT22;10974;51.034;3.744;2022-12-18T06:03:06;-4.20;99.90
21625;DHT22;10974;51.034;3.744;2022-12-18T06:05:36;-4.20;99.90
21625;DHT22;10974;51.034;3.744;2022-12-18T06:08:02;-4.20;99.90
21625;DHT22;10974;51.034;3.744;2022-12-18T06:10:28;-4.20;99.90
21625;DHT22;10974;51.034;3.744;2022-12-18T06:12:54;-4.20;99.90
21625;DHT22;10974;51.034;3.744;2022-12-18T06:15:19;-4.20;99.90
21625;DHT22;10974;51.034;3.744;2022-12-18T06:17:45;-4.20;99.90
21625;DHT22;10974;51.034;3.744;2022-12-18T06:20:10;-4.20;99.90
21625;DHT22;10974;51.034;3.744;2022-12-18T06:22:36;-4.30;99.90
21625;DHT22;10974;51.034;3.744;2022-12-18T06:25:02;-4.40;99.90
21625;DHT22;10974;51.034;3.744;2022-12-18T06:27:28;-4.20;99.90
21625;DHT22;10974;51.034;3.744;2022-12-18T06:29:54;-4.30;99.90
21625;DHT22;10974;51.034;3.744;2022-12-18T06:32:19;-4.40;99.90
21625;DHT22;10974;51.034;3.744;2022-12-18T06:34:45;-4.30;99.90
21625;DHT22;10974;51.034;3.744;2022-12-18T06:37:10;-4.30;99.90
21625;DHT22;10974;51.034;3.744;2022-12-18T06:39:36;-4.20;99.90
21625;DHT22;10974;51.034;3.744;2022-12-18T06:42:03;-4.10;99.90
21625;DHT22;10974;51.034;3.744;2022-12-18T06:44:28;-4.20;99.90
21625;DHT22;10974;51.034;3.744;2022-12-18T06:46:54;-4.30;99.90
21625;DHT22;10974;51.034;3.744;2022-12-18T06:49:20;-4.20;99.90
21625;DHT22;10974;51.034;3.744;2022-12-18T06:51:46;-4.10;99.90
21625;DHT22;10974;51.034;3.744;2022-12-18T06:54:12;-4.20;99.90
21625;DHT22;10974;51.034;3.744;2022-12-18T06:56:38;-4.20;99.90
21625;DHT22;10974;51.034;3.744;2022-12-18T06:59:04;-4.20;99.90
21625;DHT22;10974;51.034;3.744;2022-12-18T07:01:29;-4.10;99.90
21625;DHT22;10974;51.034;3.744;2022-12-18T07:03:56;-4.20;99.90
21625;DHT22;10974;51.034;3.744;2022-12-18T07:06:24;-4.10;99.90
21625;DHT22;10974;51.034;3.744;2022-12-18T07:08:51;-4.20;99.90
21625;DHT22;10974;51.034;3.744;2022-12-18T07:11:18;-4.30;99.90
21625;DHT22;10974;51.034;3.744;2022-12-18T07:13:44;-4.20;99.90
21625;DHT22;10974;51.034;3.744;2022-12-18T07:16:12;-4.10;99.90
21625;DHT22;10974;51.034;3.744;2022-12-18T07:18:38;-4.10;99.90
21625;DHT22;10974;51.034;3.744;2022-12-18T07:21:05;-4.20;99.90
21625;DHT22;10974;51.034;3.744;2022-12-18T07:23:33;-4.20;99.90
21625;DHT22;10974;51.034;3.744;2022-12-18T07:26:11;-4.20;99.90
21625;DHT22;10974;51.034;3.744;2022-12-18T07:28:38;-4.30;99.90
21625;DHT22;10974;51.034;3.744;2022-12-18T07:31:16;-4.30;99.90
21625;DHT22;10974;51.034;3.744;2022-12-18T07:33:43;-4.30;99.90
21625;DHT22;10974;51.034;3.744;2022-12-18T07:36:10;-4.30;99.90
21625;DHT22;10974;51.034;3.744;2022-12-18T07:38:36;-4.10;99.90
21625;DHT22;10974;51.034;3.744;2022-12-18T07:41:04;-4.40;99.90
21625;DHT22;10974;51.034;3.744;2022-12-18T07:43:29;-4.30;99.90
21625;DHT22;10974;51.034;3.744;2022-12-18T07:45:55;-4.40;99.90
21625;DHT22;10974;51.034;3.744;2022-12-18T07:48:21;-4.20;99.90
21625;DHT22;10974;51.034;3.744;2022-12-18T07:50:47;-4.20;99.90
21625;DHT22;10974;51.034;3.744;2022-12-18T07:53:12;-4.30;99.90
21625;DHT22;10974;51.034;3.744;2022-12-18T07:55:40;-4.20;99.90
21625;DHT22;10974;51.034;3.744;2022-12-18T07:58:07;-4.20;99.90
21625;DHT22;10974;51.034;3.744;2022-12-18T08:00:33;-4.20;99.90
21625;DHT22;10974;51.034;3.744;2022-12-18T08:02:59;-4.20;99.90
21625;DHT22;10974;51.034;3.744;2022-12-18T08:05:25;-4.10;99.90
21625;DHT22;10974;51.034;3.744;2022-12-18T08:07:51;-4.10;99.90
21625;DHT22;10974;51.034;3.744;2022-12-18T08:10:17;-4.10;99.90
21625;DHT22;10974;51.034;3.744;2022-12-18T08:12:43;-4.10;99.90
21625;DHT22;10974;51.034;3.744;2022-12-18T08:15:09;-4.00;99.90
21625;DHT22;10974;51.034;3.744;2022-12-18T08:17:34;-4.00;99.90
21625;DHT22;10974;51.034;3.744;2022-12-18T08:20:00;-4.00;99.90
21625;DHT22;10974;51.034;3.744;2022-12-18T08:22:26;-3.80;99.90
21625;DHT22;10974;51.034;3.744;2022-12-18T08:24:51;-3.60;99.90
21625;DHT22;10974;51.034;3.744;2022-12-18T08:27:17;-3.70;99.90
21625;DHT22;10974;51.034;3.744;2022-12-18T08:29:43;-3.60;99.90
21625;DHT22;10974;51.034;3.744;2022-12-18T08:32:09;-3.60;99.90
21625;DHT22;10974;51.034;3.744;2022-12-18T08:34:35;-3.60;99.90
21625;DHT22;10974;51.034;3.744;2022-12-18T08:37:01;-3.50;99.90
21625;DHT22;10974;51.034;3.744;2022-12-18T08:39:26;-3.50;99.90
21625;DHT22;10974;51.034;3.744;2022-12-18T08:41:52;-3.50;99.90
21625;DHT22;10974;51.034;3.744;2022-12-18T08:44:36;-3.50;99.90
21625;DHT22;10974;51.034;3.744;2022-12-18T08:47:06;-3.30;99.90
21625;DHT22;10974;51.034;3.744;2022-12-18T08:49:33;-3.40;99.90
21625;DHT22;10974;51.034;3.744;2022-12-18T08:51:59;-3.40;99.90
21625;DHT22;10974;51.034;3.744;2022-12-18T08:54:26;-3.30;99.90
21625;DHT22;10974;51.034;3.744;2022-12-18T08:56:52;-3.20;99.90
21625;DHT22;10974;51.034;3.744;2022-12-18T08:59:18;-3.20;99.90
21625;DHT22;10974;51.034;3.744;2022-12-18T09:01:45;-3.10;99.90
21625;DHT22;10974;51.034;3.744;2022-12-18T09:04:11;-3.20;99.90
21625;DHT22;10974;51.034;3.744;2022-12-18T09:06:37;-3.10;99.90
21625;DHT22;10974;51.034;3.744;2022-12-18T09:09:03;-3.00;99.90
21625;DHT22;10974;51.034;3.744;2022-12-18T09:11:30;-3.10;99.90
21625;DHT22;10974;51.034;3.744;2022-12-18T09:13:57;-3.10;99.90
21625;DHT22;10974;51.034;3.744;2022-12-18T09:16:24;-2.90;99.90
21625;DHT22;10974;51.034;3.744;2022-12-18T09:18:50;-2.90;99.90
21625;DHT22;10974;51.034;3.744;2022-12-18T09:21:19;-2.90;99.90
21625;DHT22;10974;51.034;3.744;2022-12-18T09:23:50;-2.80;99.90
21625;DHT22;10974;51.034;3.744;2022-12-18T09:26:16;-2.70;99.90
21625;DHT22;10974;51.034;3.744;2022-12-18T09:28:42;-2.70;99.90
21625;DHT22;10974;51.034;3.744;2022-12-18T09:31:10;-2.80;99.90
21625;DHT22;10974;51.034;3.744;2022-12-18T09:33:36;-2.70;99.90
21625;DHT22;10974;51.034;3.744;2022-12-18T09:36:04;-2.60;99.90
21625;DHT22;10974;51.034;3.744;2022-12-18T09:38:30;-2.70;99.90
21625;DHT22;10974;51.034;3.744;2022-12-18T09:41:04;-2.50;99.90
21625;DHT22;10974;51.034;3.744;2022-12-18T09:43:49;-2.50;99.90
21625;DHT22;10974;51.034;3.744;2022-12-18T09:46:26;-2.40;99.90
21625;DHT22;10974;51.034;3.744;2022-12-18T09:48:57;-2.40;99.90
21625;DHT22;10974;51.034;3.744;2022-12-18T09:51:28;-2.30;99.90
21625;DHT22;10974;51.034;3.744;2022-12-18T09:54:05;-2.30;99.90
21625;DHT22;10974;51.034;3.744;2022-12-18T09:56:35;-2.30;99.90
21625;DHT22;10974;51.034;3.744;2022-12-18T09:59:04;-2.20;99.90
21625;DHT22;10974;51.034;3.744;2022-12-18T10:01:32;-2.30;99.90
21625;DHT22;10974;51.034;3.744;2022-12-18T10:03:59;-2.20;99.90
21625;DHT22;10974;51.034;3.744;2022-12-18T10:06:38;-2.20;99.90
21625;DHT22;10974;51.034;3.744;2022-12-18T10:09:38;-2.10;99.90
21625;DHT22;10974;51.034;3.744;2022-12-18T10:12:16;-2.10;99.90
21625;DHT22;10974;51.034;3.744;2022-12-18T10:15:00;-2.10;99.90
21625;DHT22;10974;51.034;3.744;2022-12-18T10:18:14;-2.10;99.90
21625;DHT22;10974;51.034;3.744;2022-12-18T10:20:44;-1.90;99.90
21625;DHT22;10974;51.034;3.744;2022-12-18T10:23:37;-1.90;99.90
21625;DHT22;10974;51.034;3.744;2022-12-18T10:26:05;-1.90;99.90
21625;DHT22;10974;51.034;3.744;2022-12-18T10:28:35;-2.00;99.90
21625;DHT22;10974;51.034;3.744;2022-12-18T10:31:01;-1.90;99.90
21625;DHT22;10974;51.034;3.744;2022-12-18T10:33:32;-1.90;99.90
21625;DHT22;10974;51.034;3.744;2022-12-18T10:35:58;-1.90;99.90
21625;DHT22;10974;51.034;3.744;2022-12-18T10:38:25;-1.70;99.90
21625;DHT22;10974;51.034;3.744;2022-12-18T10:41:02;-1.70;99.90
21625;DHT22;10974;51.034;3.744;2022-12-18T10:51:29;-1.50;99.90
21625;DHT22;10974;51.034;3.744;2022-12-18T10:54:17;-1.50;99.90
21625;DHT22;10974;51.034;3.744;2022-12-18T10:56:44;-1.50;99.90
21625;DHT22;10974;51.034;3.744;2022-12-18T10:59:12;-1.50;99.90
21625;DHT22;10974;51.034;3.744;2022-12-18T11:01:55;-1.50;99.90
21625;DHT22;10974;51.034;3.744;2022-12-18T11:04:24;-1.40;99.90
21625;DHT22;10974;51.034;3.744;2022-12-18T11:07:02;-1.40;99.90
21625;DHT22;10974;51.034;3.744;2022-12-18T11:09:33;-1.30;99.90
21625;DHT22;10974;51.034;3.744;2022-12-18T11:12:04;-1.30;99.90
21625;DHT22;10974;51.034;3.744;2022-12-18T11:14:51;-1.30;99.90
21625;DHT22;10974;51.034;3.744;2022-12-18T11:17:21;-1.20;99.90
21625;DHT22;10974;51.034;3.744;2022-12-18T11:19:58;-1.20;99.90
21625;DHT22;10974;51.034;3.744;2022-12-18T11:22:27;-1.20;99.90
21625;DHT22;10974;51.034;3.744;2022-12-18T11:25:04;-1.20;99.90
21625;DHT22;10974;51.034;3.744;2022-12-18T11:27:31;-1.10;99.90
21625;DHT22;10974;51.034;3.744;2022-12-18T11:32:42;-0.90;99.90
21625;DHT22;10974;51.034;3.744;2022-12-18T11:35:17;-0.80;99.90
21625;DHT22;10974;51.034;3.744;2022-12-18T11:37:49;-0.60;99.90
21625;DHT22;10974;51.034;3.744;2022-12-18T11:40:36;-0.50;99.90
21625;DHT22;10974;51.034;3.744;2022-12-18T11:43:27;-0.60;99.90
21625;DHT22;10974;51.034;3.744;2022-12-18T11:46:07;-0.50;99.90
21625;DHT22;10974;51.034;3.744;2022-12-18T11:48:38;-0.50;99.90
21625;DHT22;10974;51.034;3.744;2022-12-18T11:51:14;-0.40;99.90
21625;DHT22;10974;51.034;3.744;2022-12-18T11:53:41;-0.30;99.90
21625;DHT22;10974;51.034;3.744;2022-12-18T11:56:39;-0.40;99.90
21625;DHT22;10974;51.034;3.744;2022-12-18T12:12:47;0.00;99.90
21625;DHT22;10974;51.034;3.744;2022-12-18T12:20:53;0.00;99.90
21625;DHT22;10974;51.034;3.744;2022-12-18T12:31:55;0.10;99.90
21625;DHT22;10974;51.034;3.744;2022-12-18T12:34:29;0.20;99.90
21625;DHT22;10974;51.034;3.744;2022-12-18T12:37:11;0.30;99.90
21625;DHT22;10974;51.034;3.744;2022-12-18T12:39:40;0.40;99.90
21625;DHT22;10974;51.034;3.744;2022-12-18T12:43:05;0.30;99.90
21625;DHT22;10974;51.034;3.744;2022-12-18T12:45:48;0.20;99.90
21625;DHT22;10974;51.034;3.744;2022-12-18T12:48:38;0.40;99.90
21625;DHT22;10974;51.034;3.744;2022-12-18T12:51:22;0.40;99.90
21625;DHT22;10974;51.034;3.744;2022-12-18T12:53:49;0.30;99.90
21625;DHT22;10974;51.034;3.744;2022-12-18T12:56:17;0.20;99.90
21625;DHT22;10974;51.034;3.744;2022-12-18T13:01:41;0.30;99.90
21625;DHT22;10974;51.034;3.744;2022-12-18T13:04:29;0.20;99.90
21625;DHT22;10974;51.034;3.744;2022-12-18T13:15:32;0.30;99.90
21625;DHT22;10974;51.034;3.744;2022-12-18T13:31:12;0.30;99.90
21625;DHT22;10974;51.034;3.744;2022-12-18T13:33:41;0.40;99.90
21625;DHT22;10974;51.034;3.744;2022-12-18T13:41:40;0.30;99.90
21625;DHT22;10974;51.034;3.744;2022-12-18T13:46:53;0.30;99.90
21625;DHT22;10974;51.034;3.744;2022-12-18T13:49:26;0.30;99.90
21625;DHT22;10974;51.034;3.744;2022-12-18T13:51:56;0.40;99.90
21625;DHT22;10974;51.034;3.744;2022-12-18T13:54:39;0.40;99.90
21625;DHT22;10974;51.034;3.744;2022-12-18T13:57:37;0.30;99.90
21625;DHT22;10974;51.034;3.744;2022-12-18T14:02:50;0.50;99.90
21625;DHT22;10974;51.034;3.744;2022-12-18T14:05:28;0.60;99.90
21625;DHT22;10974;51.034;3.744;2022-12-18T14:08:00;0.60;99.90
21625;DHT22;10974;51.034;3.744;2022-12-18T14:10:27;0.50;99.90
21625;DHT22;10974;51.034;3.744;2022-12-18T14:12:53;0.50;99.90
21625;DHT22;10974;51.034;3.744;2022-12-18T14:18:25;0.50;99.90
21625;DHT22;10974;51.034;3.744;2022-12-18T14:20:48;0.50;99.90
21625;DHT22;10974;51.034;3.744;2022-12-18T14:23:33;0.70;99.90
21625;DHT22;10974;51.034;3.744;2022-12-18T14:26:02;0.60;99.90
21625;DHT22;10974;51.034;3.744;2022-12-18T14:28:29;0.70;99.90
21625;DHT22;10974;51.034;3.744;2022-12-18T14:30:55;0.60;99.90
21625;DHT22;10974;51.034;3.744;2022-12-18T14:33:25;0.60;99.90
21625;DHT22;10974;51.034;3.744;2022-12-18T14:35:58;0.60;99.90
21625;DHT22;10974;51.034;3.744;2022-12-18T14:38:52;0.70;99.90
21625;DHT22;10974;51.034;3.744;2022-12-18T14:41:20;0.70;99.90
21625;DHT22;10974;51.034;3.744;2022-12-18T14:43:51;0.70;99.90
21625;DHT22;10974;51.034;3.744;2022-12-18T14:48:55;0.60;99.90
21625;DHT22;10974;51.034;3.744;2022-12-18T14:51:26;0.60;99.90
21625;DHT22;10974;51.034;3.744;2022-12-18T14:54:00;0.50;99.90
21625;DHT22;10974;51.034;3.744;2022-12-18T14:59:02;0.60;99.90
21625;DHT22;10974;51.034;3.744;2022-12-18T15:01:36;0.60;99.90
21625;DHT22;10974;51.034;3.744;2022-12-18T15:04:03;0.60;99.90
21625;DHT22;10974;51.034;3.744;2022-12-18T15:06:35;0.60;99.90
21625;DHT22;10974;51.034;3.744;2022-12-18T15:09:24;0.60;1.00
21625;DHT22;10974;51.034;3.744;2022-12-18T15:11:56;0.60;10.30
21625;DHT22;10974;51.034;3.744;2022-12-18T15:17:06;0.60;55.00
21625;DHT22;10974;51.034;3.744;2022-12-18T15:19:41;0.70;99.90
21625;DHT22;10974;51.034;3.744;2022-12-18T15:22:30;0.60;1.00
21625;DHT22;10974;51.034;3.744;2022-12-18T15:24:59;0.60;1.00
21625;DHT22;10974;51.034;3.744;2022-12-18T15:27:31;0.70;51.80
21625;DHT22;10974;51.034;3.744;2022-12-18T15:32:34;0.70;1.00
21625;DHT22;10974;51.034;3.744;2022-12-18T15:37:35;0.70;1.00
21625;DHT22;10974;51.034;3.744;2022-12-18T15:40:00;0.70;99.90
21625;DHT22;10974;51.034;3.744;2022-12-18T15:42:28;0.80;1.00
21625;DHT22;10974;51.034;3.744;2022-12-18T15:45:13;0.70;99.90
21625;DHT22;10974;51.034;3.744;2022-12-18T15:47:39;0.70;99.90
21625;DHT22;10974;51.034;3.744;2022-12-18T15:50:05;0.80;99.90
21625;DHT22;10974;51.034;3.744;2022-12-18T15:52:39;0.80;99.90
21625;DHT22;10974;51.034;3.744;2022-12-18T15:55:10;0.80;99.90
21625;DHT22;10974;51.034;3.744;2022-12-18T15:57:54;0.80;99.90
21625;DHT22;10974;51.034;3.744;2022-12-18T16:00:20;0.80;1.00
21625;DHT22;10974;51.034;3.744;2022-12-18T16:02:46;0.80;1.00
21625;DHT22;10974;51.034;3.744;2022-12-18T16:05:15;0.80;1.00
21625;DHT22;10974;51.034;3.744;2022-12-18T16:07:43;0.90;1.00
21625;DHT22;10974;51.034;3.744;2022-12-18T16:10:09;0.90;82.40
21625;DHT22;10974;51.034;3.744;2022-12-18T16:12:35;0.80;1.00
21625;DHT22;10974;51.034;3.744;2022-12-18T16:15:01;0.90;1.00
21625;DHT22;10974;51.034;3.744;2022-12-18T16:17:27;0.80;97.40
21625;DHT22;10974;51.034;3.744;2022-12-18T16:19:52;0.90;65.90
21625;DHT22;10974;51.034;3.744;2022-12-18T16:22:21;0.90;1.00
21625;DHT22;10974;51.034;3.744;2022-12-18T16:24:47;0.90;1.00
21625;DHT22;10974;51.034;3.744;2022-12-18T16:27:13;1.00;99.90
21625;DHT22;10974;51.034;3.744;2022-12-18T16:29:39;1.00;99.90
21625;DHT22;10974;51.034;3.744;2022-12-18T16:32:04;0.90;99.90
21625;DHT22;10974;51.034;3.744;2022-12-18T16:34:32;0.90;99.90
21625;DHT22;10974;51.034;3.744;2022-12-18T16:37:01;1.00;1.00
21625;DHT22;10974;51.034;3.744;2022-12-18T16:39:27;1.10;1.00
21625;DHT22;10974;51.034;3.744;2022-12-18T16:41:53;1.00;1.00
21625;DHT22;10974;51.034;3.744;2022-12-18T16:44:19;1.00;99.90
21625;DHT22;10974;51.034;3.744;2022-12-18T16:46:45;1.00;99.90
21625;DHT22;10974;51.034;3.744;2022-12-18T16:49:13;1.00;99.90
21625;DHT22;10974;51.034;3.744;2022-12-18T16:51:39;1.00;99.90
21625;DHT22;10974;51.034;3.744;2022-12-18T16:54:05;1.00;99.90
21625;DHT22;10974;51.034;3.744;2022-12-18T16:56:31;1.10;99.90
21625;DHT22;10974;51.034;3.744;2022-12-18T16:58:59;1.00;99.90
21625;DHT22;10974;51.034;3.744;2022-12-18T17:01:26;1.00;99.90
21625;DHT22;10974;51.034;3.744;2022-12-18T17:03:59;1.00;99.90
21625;DHT22;10974;51.034;3.744;2022-12-18T17:06:26;1.10;99.90
21625;DHT22;10974;51.034;3.744;2022-12-18T17:08:59;1.00;99.90
21625;DHT22;10974;51.034;3.744;2022-12-18T17:11:27;1.00;99.90
21625;DHT22;10974;51.034;3.744;2022-12-18T17:13:53;1.00;99.90
21625;DHT22;10974;51.034;3.744;2022-12-18T17:16:19;1.00;99.90
21625;DHT22;10974;51.034;3.744;2022-12-18T17:18:46;1.00;99.90
21625;DHT22;10974;51.034;3.744;2022-12-18T17:21:12;1.00;99.90
21625;DHT22;10974;51.034;3.744;2022-12-18T17:23:40;0.90;99.90
21625;DHT22;10974;51.034;3.744;2022-12-18T17:26:06;0.90;99.90
21625;DHT22;10974;51.034;3.744;2022-12-18T17:28:34;0.90;99.90
21625;DHT22;10974;51.034;3.744;2022-12-18T17:31:00;0.90;99.90
21625;DHT22;10974;51.034;3.744;2022-12-18T17:33:26;0.90;99.90
21625;DHT22;10974;51.034;3.744;2022-12-18T17:35:52;1.00;99.90
21625;DHT22;10974;51.034;3.744;2022-12-18T17:38:17;0.90;99.90
21625;DHT22;10974;51.034;3.744;2022-12-18T17:40:43;0.90;99.90
21625;DHT22;10974;51.034;3.744;2022-12-18T17:43:09;0.90;99.90
21625;DHT22;10974;51.034;3.744;2022-12-18T17:45:38;0.90;99.90
21625;DHT22;10974;51.034;3.744;2022-12-18T17:48:05;0.90;99.90
21625;DHT22;10974;51.034;3.744;2022-12-18T17:50:32;0.90;99.90
21625;DHT22;10974;51.034;3.744;2022-12-18T17:52:58;0.90;99.90
21625;DHT22;10974;51.034;3.744;2022-12-18T17:55:25;0.90;99.90
21625;DHT22;10974;51.034;3.744;2022-12-18T17:57:51;1.00;99.90
21625;DHT22;10974;51.034;3.744;2022-12-18T18:00:17;0.90;99.90
21625;DHT22;10974;51.034;3.744;2022-12-18T18:02:43;0.90;99.90
21625;DHT22;10974;51.034;3.744;2022-12-18T18:05:09;0.80;99.90
21625;DHT22;10974;51.034;3.744;2022-12-18T18:07:36;0.90;99.90
21625;DHT22;10974;51.034;3.744;2022-12-18T18:10:02;0.90;99.90
21625;DHT22;10974;51.034;3.744;2022-12-18T18:12:28;1.00;99.90
21625;DHT22;10974;51.034;3.744;2022-12-18T18:15:13;0.90;99.90
21625;DHT22;10974;51.034;3.744;2022-12-18T18:17:38;0.90;99.90
21625;DHT22;10974;51.034;3.744;2022-12-18T18:20:04;0.80;99.90
21625;DHT22;10974;51.034;3.744;2022-12-18T18:22:31;0.90;99.90
21625;DHT22;10974;51.034;3.744;2022-12-18T18:24:57;0.90;99.90
21625;DHT22;10974;51.034;3.744;2022-12-18T18:27:23;0.90;99.90
21625;DHT22;10974;51.034;3.744;2022-12-18T18:29:49;0.90;99.90
21625;DHT22;10974;51.034;3.744;2022-12-18T18:32:15;0.90;99.90
21625;DHT22;10974;51.034;3.744;2022-12-18T18:34:41;0.90;99.90
21625;DHT22;10974;51.034;3.744;2022-12-18T18:37:07;0.90;99.90
21625;DHT22;10974;51.034;3.744;2022-12-18T18:39:33;0.90;99.90
21625;DHT22;10974;51.034;3.744;2022-12-18T18:41:59;0.90;99.90
21625;DHT22;10974;51.034;3.744;2022-12-18T18:44:24;0.90;99.90
21625;DHT22;10974;51.034;3.744;2022-12-18T18:46:51;1.00;99.90
21625;DHT22;10974;51.034;3.744;2022-12-18T18:49:17;0.90;99.90
21625;DHT22;10974;51.034;3.744;2022-12-18T18:51:43;0.90;99.90
21625;DHT22;10974;51.034;3.744;2022-12-18T18:54:09;0.90;99.90
21625;DHT22;10974;51.034;3.744;2022-12-18T18:56:34;0.90;99.90
21625;DHT22;10974;51.034;3.744;2022-12-18T18:59:00;0.90;99.90
21625;DHT22;10974;51.034;3.744;2022-12-18T19:01:26;0.90;99.90
21625;DHT22;10974;51.034;3.744;2022-12-18T19:03:52;0.90;99.90
21625;DHT22;10974;51.034;3.744;2022-12-18T19:06:27;0.80;99.90
21625;DHT22;10974;51.034;3.744;2022-12-18T19:08:54;0.90;99.90
21625;DHT22;10974;51.034;3.744;2022-12-18T19:11:20;0.90;99.90
21625;DHT22;10974;51.034;3.744;2022-12-18T19:14:07;0.90;99.90
21625;DHT22;10974;51.034;3.744;2022-12-18T19:16:34;0.90;99.90
21625;DHT22;10974;51.034;3.744;2022-12-18T19:19:00;0.90;99.90
21625;DHT22;10974;51.034;3.744;2022-12-18T19:21:26;0.90;99.90
21625;DHT22;10974;51.034;3.744;2022-12-18T19:23:52;0.90;99.90
21625;DHT22;10974;51.034;3.744;2022-12-18T19:26:19;0.90;99.90
21625;DHT22;10974;51.034;3.744;2022-12-18T19:28:45;0.90;99.90
21625;DHT22;10974;51.034;3.744;2022-12-18T19:31:13;0.90;99.90
21625;DHT22;10974;51.034;3.744;2022-12-18T19:33:42;0.90;99.90
21625;DHT22;10974;51.034;3.744;2022-12-18T19:38:35;1.00;99.90
21625;DHT22;10974;51.034;3.744;2022-12-18T19:41:04;1.00;99.90
21625;DHT22;10974;51.034;3.744;2022-12-18T19:43:30;0.90;99.90
21625;DHT22;10974;51.034;3.744;2022-12-18T19:45:55;0.90;99.90
21625;DHT22;10974;51.034;3.744;2022-12-18T19:48:21;0.90;99.90
21625;DHT22;10974;51.034;3.744;2022-12-18T19:50:47;0.90;99.90
21625;DHT22;10974;51.034;3.744;2022-12-18T19:53:12;0.90;99.90
21625;DHT22;10974;51.034;3.744;2022-12-18T19:55:41;0.90;99.90
21625;DHT22;10974;51.034;3.744;2022-12-18T19:58:07;0.90;99.90
21625;DHT22;10974;51.034;3.744;2022-12-18T20:00:34;0.90;99.90
21625;DHT22;10974;51.034;3.744;2022-12-18T20:03:00;0.90;99.90
21625;DHT22;10974;51.034;3.744;2022-12-18T20:05:26;1.00;99.90
21625;DHT22;10974;51.034;3.744;2022-12-18T20:07:52;1.00;99.90
21625;DHT22;10974;51.034;3.744;2022-12-18T20:10:18;0.90;99.90
21625;DHT22;10974;51.034;3.744;2022-12-18T20:12:44;1.00;99.90
21625;DHT22;10974;51.034;3.744;2022-12-18T20:15:10;1.00;99.90
21625;DHT22;10974;51.034;3.744;2022-12-18T20:17:38;1.00;99.90
21625;DHT22;10974;51.034;3.744;2022-12-18T20:20:04;1.00;99.90
21625;DHT22;10974;51.034;3.744;2022-12-18T20:22:30;1.00;99.90
21625;DHT22;10974;51.034;3.744;2022-12-18T20:24:56;1.10;99.90
21625;DHT22;10974;51.034;3.744;2022-12-18T20:27:22;1.10;99.90
21625;DHT22;10974;51.034;3.744;2022-12-18T20:29:47;1.10;99.90
21625;DHT22;10974;51.034;3.744;2022-12-18T20:32:13;1.20;99.90
21625;DHT22;10974;51.034;3.744;2022-12-18T20:34:40;1.20;99.90
21625;DHT22;10974;51.034;3.744;2022-12-18T20:37:05;1.20;99.90
21625;DHT22;10974;51.034;3.744;2022-12-18T20:39:31;1.20;99.90
21625;DHT22;10974;51.034;3.744;2022-12-18T20:41:57;1.30;99.90
21625;DHT22;10974;51.034;3.744;2022-12-18T20:44:22;1.30;99.90
21625;DHT22;10974;51.034;3.744;2022-12-18T20:46:50;1.30;99.90
21625;DHT22;10974;51.034;3.744;2022-12-18T20:49:16;1.40;99.90
21625;DHT22;10974;51.034;3.744;2022-12-18T20:51:41;1.40;99.90
21625;DHT22;10974;51.034;3.744;2022-12-18T20:54:07;1.40;99.90
21625;DHT22;10974;51.034;3.744;2022-12-18T20:56:33;1.50;99.90
21625;DHT22;10974;51.034;3.744;2022-12-18T20:58:59;1.50;99.90
21625;DHT22;10974;51.034;3.744;2022-12-18T21:01:27;1.50;99.90
21625;DHT22;10974;51.034;3.744;2022-12-18T21:03:53;1.60;99.90
21625;DHT22;10974;51.034;3.744;2022-12-18T21:06:21;1.90;99.90
21625;DHT22;10974;51.034;3.744;2022-12-18T21:08:47;2.30;99.90
21625;DHT22;10974;51.034;3.744;2022-12-18T21:14:12;2.60;99.90
21625;DHT22;10974;51.034;3.744;2022-12-18T21:16:38;2.70;99.90
21625;DHT22;10974;51.034;3.744;2022-12-18T21:19:04;2.80;99.90
21625;DHT22;10974;51.034;3.744;2022-12-18T21:21:30;2.90;99.90
21625;DHT22;10974;51.034;3.744;2022-12-18T21:23:56;2.90;99.90
21625;DHT22;10974;51.034;3.744;2022-12-18T21:26:24;3.10;99.90
21625;DHT22;10974;51.034;3.744;2022-12-18T21:28:54;3.10;99.90
21625;DHT22;10974;51.034;3.744;2022-12-18T21:31:21;3.30;99.90
21625;DHT22;10974;51.034;3.744;2022-12-18T21:33:48;3.30;99.90
21625;DHT22;10974;51.034;3.744;2022-12-18T21:36:14;3.30;99.90
21625;DHT22;10974;51.034;3.744;2022-12-18T21:38:40;3.30;99.90
21625;DHT22;10974;51.034;3.744;2022-12-18T21:41:07;3.20;99.90
21625;DHT22;10974;51.034;3.744;2022-12-18T21:43:35;3.40;99.90